Latest Coastal Weather Observations for Dennes Point

IDT60701

Issued at 3:42 pm EST Wednesday 20 September 2017 (issued every 10 minutes, with the page automatically refreshed every 10 minutes)

About coastal observations | Map of coastal stations | Coastal observations for TAS | Marine services | Other Formats
Station Details ID: 094255 Name: DENNES POINT Lat: -43.06 Lon: 147.36 Height: 5.67 m
Data from the previous 72 hours. | See also: Recent months at Dennes Point
Date/Time
EST
Temp
°C
Wind Pressure Rain since
9am
mm
Weather Cloud Vis
km
Sea
Height
m
Swell
Dir  Spd
kts
Gust
kts
hPa Trend Height
m
Period
s
Dir
20/03:30pm 13.4 NNE 6 8 1011.0 - 0.0 - - - - - - -
20/03:00pm 13.2 E 4 7 1011.4 - 0.0 - - - - - - -
20/02:30pm 13.5 NNE 5 7 1012.2 - 0.0 - - - - - - -
20/02:00pm 13.5 NE 6 6 1012.6 - 0.0 - - - - - - -
20/01:30pm 13.4 NE 7 9 1013.1 - 0.0 - - - - - - -
20/01:00pm 12.8 NNE 6 7 1013.8 - 0.0 - - - - - - -
20/12:30pm 12.2 NNE 6 7 1014.4 - 0.0 - - - - - - -
20/12:00pm 12.1 NNE 6 7 1015.1 - 0.0 - - - - - - -
20/11:30am 11.4 NNE 7 7 1015.0 - 0.0 - - - - - - -
20/11:00am 10.9 N 7 9 1015.6 - 0.0 - - - - - - -
20/10:30am 10.1 NNE 8 10 1016.0 - 0.0 - - - - - - -
20/10:00am 10.0 N 5 7 1016.6 - 0.0 - - - - - - -
20/09:30am 8.9 N 9 12 1016.9 - 0.0 - - - - - - -
20/09:00am 8.5 N 6 8 1017.2 - 0.6 - - - - - - -
20/08:30am 7.8 N 8 10 1017.3 - 0.6 - - - - - - -
20/08:00am 7.8 N 5 9 1017.2 - 0.6 - - - - - - -
20/07:30am 7.2 N 3 4 1017.2 - 0.6 - - - - - - -
20/07:00am 6.5 CALM 0 0 1017.1 - 0.6 - - - - - - -
20/06:30am 6.7 N 4 6 1017.1 - 0.6 - - - - - - -
20/06:00am 5.7 CALM 0 2 1016.8 - 0.6 - - - - - - -
20/05:30am 4.9 SSW 4 5 1016.7 - 0.6 - - - - - - -
20/05:00am 4.4 SSW 3 5 1016.8 - 0.6 - - - - - - -
20/04:30am 4.9 SSW 4 5 1016.8 - 0.6 - - - - - - -
20/04:00am 5.5 SSE 2 3 1016.6 - 0.6 - - - - - - -
20/03:30am 4.8 SW 3 5 1016.7 - 0.6 - - - - - - -
20/03:00am 5.4 S 4 5 1016.9 - 0.6 - - - - - - -
20/02:30am 5.3 SW 1 3 1017.0 - 0.6 - - - - - - -
20/02:00am 5.7 W 6 7 1017.0 - 0.6 - - - - - - -
20/01:30am 6.4 W 7 9 1017.3 - 0.6 - - - - - - -
20/01:00am 6.7 W 6 8 1017.7 - 0.6 - - - - - - -
20/12:30am 6.5 W 9 11 1017.6 - 0.6 - - - - - - -
20/12:00am 6.4 W 8 11 1017.5 - 0.6 - - - - - - -
 
Date/Time
EST
Temp
°C
Wind Pressure Rain since
9am
mm
Weather Cloud Vis
km
Sea
Height
m
Swell
Dir  Spd
kts
Gust
kts
hPa Trend Height
m
Period
s
Dir
19/11:30pm 6.7 WNW 8 11 1017.5 - 0.6 - - - - - - -
19/11:00pm 7.2 NW 5 7 1017.5 - 0.6 - - - - - - -
19/10:30pm 6.9 WSW 8 11 1017.2 - 0.6 - - - - - - -
19/10:00pm 7.1 SW 7 10 1017.2 - 0.6 - - - - - - -
19/09:30pm 6.9 W 8 10 1017.1 - 0.6 - - - - - - -
19/09:00pm 6.9 W 10 13 1016.9 - 0.6 - - - - - - -
19/08:30pm 6.7 WSW 6 9 1016.5 - 0.6 - - - - - - -
19/08:00pm 7.2 WSW 10 13 1016.3 - 0.6 - - - - - - -
19/07:30pm 7.1 W 15 18 1015.8 - 0.6 - - - - - - -
19/07:00pm 6.9 WSW 13 17 1015.6 - 0.6 - - - - - - -
19/06:30pm 7.2 WSW 14 19 1015.2 - 0.4 - - - - - - -
19/06:00pm 7.9 WSW 12 17 1014.4 - 0.4 - - - - - - -
19/05:30pm 8.2 WSW 17 21 1013.8 - 0.4 - - - - - - -
19/05:00pm 8.4 WSW 16 21 1013.5 - 0.4 - - - - - - -
19/04:30pm 7.5 WSW 12 20 1013.2 - 0.4 - - - - - - -
19/04:00pm 9.3 WSW 13 21 1012.6 - 0.4 - - - - - - -
19/03:30pm 9.9 WSW 14 18 1012.0 - 0.4 - - - - - - -
19/03:00pm 9.2 WSW 17 21 1011.9 - 0.4 Recent precip. - - - - - -
19/02:30pm 7.1 SW 19 30 1011.4 - 0.4 - - - - - - -
19/02:19pm 7.8 SW 15 25 1011.4 - 0.2 - - - - - - -
19/02:00pm 10.2 SW 15 20 1010.7 - 0.2 - - - - - - -
19/01:30pm 7.9 SW 16 30 1010.8 - 0.2 - - - - - - -
19/01:12pm 8.1 S 15 26 1010.6 - 0.0 - - - - - - -
19/01:00pm 9.4 SW 10 16 1010.2 - 0.0 - - - - - - -
19/12:37pm 10.8 W 16 26 1009.9 - 0.0 - - - - - - -
19/12:30pm 10.3 W 19 24 1009.9 - 0.0 - - - - - - -
19/12:17pm 10.0 WSW 20 31 1009.6 - 0.0 - - - - - - -
19/12:00pm 10.0 WSW 20 28 1009.5 - 0.0 - - - - - - -
19/11:30am 7.4 SW 17 23 1009.7 - 0.0 - - - - - - -
19/11:00am 9.7 WSW 20 31 1009.2 - 0.0 - - - - - - -
19/10:37am 10.1 WSW 22 33 1008.4 - 0.0 - - - - - - -
19/10:30am 9.5 WSW 22 27 1008.4 - 0.0 - - - - - - -
19/10:00am 7.4 WSW 20 26 1008.5 - 0.0 - - - - - - -
19/09:30am 8.8 WSW 17 35 1007.9 - 0.0 - - - - - - -
19/09:28am 8.9 WSW 15 26 1007.9 - 0.0 - - - - - - -
19/09:00am 8.7 WSW 13 20 1007.5 - 0.0 - - - - - - -
19/08:30am 8.4 WSW 22 31 1006.8 - 0.0 - - - - - - -
19/08:02am 8.6 WSW 18 29 1006.2 - 0.0 - - - - - - -
19/08:00am 8.6 WSW 18 27 1006.3 - 0.0 - - - - - - -
19/07:30am 8.3 WSW 17 22 1005.7 - 0.0 - - - - - - -
19/07:00am 8.5 SW 17 23 1004.9 - 0.0 - - - - - - -
19/06:30am 8.8 SW 16 23 1003.6 - 0.0 - - - - - - -
19/06:01am 9.5 SW 15 25 1002.7 - 0.0 - - - - - - -
19/06:00am 9.6 SW 16 25 1002.7 - 0.0 - - - - - - -
19/05:30am 10.1 WSW 21 28 1001.8 - 0.0 - - - - - - -
19/05:13am 10.4 W 16 26 1001.1 - 0.0 - - - - - - -
19/05:00am 10.1 WSW 13 20 1000.7 - 0.0 - - - - - - -
19/04:30am 10.2 W 12 14 1000.1 - 0.0 - - - - - - -
19/04:00am 10.2 W 8 13 999.6 - 0.0 - - - - - - -
19/03:30am 9.6 SW 6 8 999.4 - 0.0 - - - - - - -
19/03:00am 11.5 WNW 7 9 999.0 - 0.0 - - - - - - -
19/02:30am 11.5 NNW 9 9 999.0 - 0.0 - - - - - - -
19/02:00am 11.6 NW 8 11 998.9 - 0.0 - - - - - - -
19/01:30am 12.2 NW 10 13 999.1 - 0.0 - - - - - - -
19/01:00am 11.8 NNW 10 13 1000.0 - 0.0 - - - - - - -
19/12:30am 12.2 NNW 6 9 1000.0 - 0.0 - - - - - - -
19/12:00am 12.5 NNW 10 15 1000.3 - 0.0 - - - - - - -
 
Date/Time
EST
Temp
°C
Wind Pressure Rain since
9am
mm
Weather Cloud Vis
km
Sea
Height
m
Swell
Dir  Spd
kts
Gust
kts
hPa Trend Height
m
Period
s
Dir
18/11:30pm 12.9 N 12 18 1000.3 - 0.0 - - - - - - -
18/11:00pm 12.7 WNW 4 7 1000.7 - 0.0 - - - - - - -
18/10:30pm 13.3 NW 8 12 1001.1 - 0.0 - - - - - - -
18/10:00pm 12.8 SSE 5 8 1001.2 - 0.0 - - - - - - -
18/09:30pm 13.6 W 4 11 1001.5 - 0.0 - - - - - - -
18/09:00pm 13.8 NW 8 13 1001.4 - 0.0 - - - - - - -
18/08:30pm 13.5 NW 10 14 1001.5 - 0.0 - - - - - - -
18/08:00pm 13.9 NW 13 21 1001.4 - 0.0 - - - - - - -
18/07:30pm 13.8 WNW 6 12 1001.8 - 0.0 - - - - - - -
18/07:00pm 13.3 NNW 11 17 1001.8 - 0.0 - - - - - - -
18/06:30pm 13.3 N 15 19 1001.9 - 0.0 - - - - - - -
18/06:00pm 14.3 NNW 16 22 1002.2 - 0.0 - - - - - - -
18/05:30pm 14.7 N 14 18 1001.9 - 0.0 - - - - - - -
18/05:00pm 14.1 N 13 24 1001.4 - 0.0 - - - - - - -
18/04:30pm 15.1 N 18 24 1001.1 - 0.0 - - - - - - -
18/04:20pm 15.1 N 18 29 1000.9 - 0.0 - - - - - - -
18/04:00pm 15.3 N 17 24 1001.3 - 0.0 - - - - - - -
18/03:32pm 16.4 NNW 15 27 1001.5 - 0.0 - - - - - - -
18/03:30pm 16.6 NNW 14 27 1001.5 - 0.0 - - - - - - -
18/03:00pm 16.5 NNW 14 20 1001.8 - 0.0 - - - - - - -
18/02:30pm 18.1 NW 15 21 1002.2 - 0.0 - - - - - - -
18/02:00pm 18.6 NNW 16 25 1002.1 - 0.0 - - - - - - -
18/01:30pm 16.4 NNW 13 19 1002.1 - 0.0 - - - - - - -
18/01:00pm 15.3 NNE 19 22 1002.1 - 0.0 - - - - - - -
18/12:30pm 15.4 N 19 22 1002.8 - 0.0 - - - - - - -
18/12:00pm 15.1 NNE 22 28 1003.6 - 0.0 - - - - - - -
18/11:30am 14.6 N 21 27 1003.9 - 0.0 - - - - - - -
18/11:00am 14.4 N 21 27 1004.5 - 0.0 - - - - - - -
18/10:30am 14.4 N 21 26 1005.0 - 0.0 - - - - - - -
18/10:00am 13.0 N 17 22 1005.8 - 0.0 - - - - - - -
18/09:30am 12.8 N 18 23 1006.5 - 0.0 - - - - - - -
18/09:00am 12.0 N 12 18 1007.2 - 0.0 - - - - - - -
18/08:30am 11.8 N 10 14 1007.9 - 0.0 - - - - - - -
18/08:00am 11.5 N 10 14 1008.2 - 0.0 - - - - - - -
18/07:30am 11.3 N 14 17 1008.5 - 0.0 - - - - - - -
18/07:00am 11.3 N 10 15 1008.7 - 0.0 - - - - - - -
18/06:30am 11.4 N 14 18 1008.9 - 0.0 - - - - - - -
18/06:00am 11.3 NNE 13 17 1009.2 - 0.0 - - - - - - -
18/05:30am 12.4 N 15 20 1009.2 - 0.0 - - - - - - -
18/05:00am 13.3 NNW 12 18 1009.1 - 0.0 - - - - - - -
18/04:30am 12.9 NW 5 7 1009.0 - 0.0 - - - - - - -
18/04:00am 12.3 NNW 3 6 1009.1 - 0.0 - - - - - - -
18/03:30am 13.2 W 10 14 1009.1 - 0.0 - - - - - - -
18/03:00am 12.8 N 10 15 1009.6 - 0.0 - - - - - - -
18/02:30am 13.6 S 4 13 1009.7 - 0.0 - - - - - - -
18/02:00am 12.7 SE 3 4 1010.2 - 0.0 - - - - - - -
18/01:30am 12.8 SSW 4 7 1010.5 - 0.0 - - - - - - -
18/01:00am 12.9 WSW 2 7 1011.2 - 0.0 - - - - - - -
18/12:30am 12.2 NNE 14 21 1011.4 - 0.0 - - - - - - -
18/12:00am 12.9 NNE 11 17 1011.6 - 0.0 - - - - - - -
 
Date/Time
EST
Temp
°C
Wind Pressure Rain since
9am
mm
Weather Cloud Vis
km
Sea
Height
m
Swell
Dir  Spd
kts
Gust
kts
hPa Trend Height
m
Period
s
Dir
17/11:30pm 12.2 NNE 16 23 1012.0 - 0.0 - - - - - - -
17/11:00pm 12.0 NNE 15 22 1012.1 - 0.0 - - - - - - -
17/10:30pm 11.8 NNE 17 21 1012.6 - 0.0 - - - - - - -
17/10:00pm 12.2 NNE 17 21 1013.0 - 0.0 - - - - - - -
17/09:30pm 12.3 N 16 20 1013.3 - 0.0 - - - - - - -
17/09:00pm 12.1 N 16 20 1013.7 - 0.0 - - - - - - -
17/08:30pm 12.1 N 14 17 1014.0 - 0.0 - - - - - - -
17/08:00pm 12.4 N 13 17 1014.0 - 0.0 - - - - - - -
17/07:30pm 12.3 N 14 17 1014.1 - 0.0 - - - - - - -
17/07:00pm 12.5 N 12 16 1014.2 - 0.0 - - - - - - -
17/06:30pm 12.8 N 8 12 1014.4 - 0.0 - - - - - - -
17/06:00pm 12.3 N 7 9 1014.6 - 0.0 - - - - - - -
17/05:30pm 12.4 E 3 5 1014.6 - 0.0 - - - - - - -
17/05:00pm 12.3 E 3 5 1014.8 - 0.0 - - - - - - -
17/04:30pm 12.4 ENE 7 9 1014.9 - 0.0 - - - - - - -
17/04:00pm 12.8 ENE 2 4 1015.4 - 0.0 - - - - - - -

Other Formats:

Comma delimited format used in spreadsheet applications
http://www.bom.gov.au/fwo/IDT60701/IDT60701.94988.axf

JavaScript Object Notation format (JSON) in row-major order
http://www.bom.gov.au/fwo/IDT60701/IDT60701.94988.json